createdAt,value
2024-03-03T06:03:21.291Z,4.31
2024-03-03T06:06:21.122Z,3.62
2024-03-03T06:09:21.333Z,3.15
2024-03-03T06:12:21.040Z,3.53
2024-03-03T06:15:21.277Z,5.44
2024-03-03T06:18:21.093Z,6.36
2024-03-03T06:21:21.318Z,7.03
2024-03-03T06:24:21.118Z,6.18
2024-03-03T06:27:21.246Z,6.73
2024-03-03T06:30:21.578Z,6.10
2024-03-03T06:33:21.407Z,6.24
2024-03-03T06:36:21.207Z,5.25
2024-03-03T06:39:21.250Z,3.89
2024-03-03T06:42:22.397Z,4.38
2024-03-03T06:45:23.929Z,5.87
2024-03-03T06:48:21.611Z,5.72
2024-03-03T06:51:30.153Z,5.50
2024-03-03T06:54:21.860Z,6.28
2024-03-03T06:57:23.729Z,7.22
2024-03-03T07:00:22.077Z,6.22
2024-03-03T07:03:25.596Z,6.25
2024-03-03T07:06:28.509Z,6.52
2024-03-03T07:09:23.877Z,5.88
2024-03-03T07:12:34.258Z,3.90
2024-03-03T07:15:24.675Z,2.03
2024-03-03T07:18:23.355Z,1.71
2024-03-03T07:21:26.428Z,4.34
2024-03-03T07:24:21.744Z,6.40
2024-03-03T07:27:26.448Z,6.61
2024-03-03T07:30:23.434Z,6.51
2024-03-03T07:33:21.177Z,6.83
2024-03-03T07:36:21.078Z,5.86
2024-03-03T07:39:21.329Z,5.83
2024-03-03T07:42:21.120Z,8.35
2024-03-03T07:45:22.180Z,10.74
2024-03-03T07:48:21.178Z,11.06
2024-03-03T07:51:21.286Z,11.93
2024-03-03T07:54:21.226Z,11.56
2024-03-03T07:57:22.256Z,11.59
2024-03-03T08:00:21.140Z,13.15
2024-03-03T08:03:21.153Z,12.49
2024-03-03T08:06:20.974Z,14.17
2024-03-03T08:09:21.206Z,14.92
2024-03-03T08:12:21.829Z,15.63
2024-03-03T08:15:21.344Z,13.17
2024-03-03T08:18:21.223Z,12.61
2024-03-03T08:21:21.304Z,14.63
2024-03-03T08:24:21.094Z,14.02
2024-03-03T08:27:22.132Z,15.05
2024-03-03T08:30:21.384Z,15.86
2024-03-03T08:33:21.374Z,16.02
2024-03-03T08:36:21.072Z,14.82
2024-03-03T08:39:21.290Z,15.89
2024-03-03T08:42:21.112Z,17.33
2024-03-03T08:45:21.337Z,16.81
2024-03-03T08:48:21.150Z,15.91
2024-03-03T08:51:21.377Z,14.57
2024-03-03T08:54:21.207Z,12.36
2024-03-03T08:57:21.304Z,15.09
2024-03-03T09:00:21.125Z,14.74
2024-03-03T09:03:21.240Z,13.77
2024-03-03T09:06:21.152Z,15.19
2024-03-03T09:09:21.389Z,14.45
2024-03-03T09:12:21.212Z,14.86
2024-03-03T09:15:21.228Z,15.92
2024-03-03T09:18:21.130Z,12.29
2024-03-03T09:21:21.357Z,13.83
2024-03-03T09:24:21.179Z,14.21
2024-03-03T09:27:21.194Z,12.32
2024-03-03T09:30:21.024Z,14.10
2024-03-03T09:33:21.409Z,13.66
2024-03-03T09:36:21.167Z,14.72
2024-03-03T09:39:21.393Z,13.62
2024-03-03T09:42:21.088Z,12.71
2024-03-03T09:45:21.211Z,12.43
2024-03-03T09:48:21.022Z,13.35
2024-03-03T09:51:21.254Z,12.71
2024-03-03T09:54:21.192Z,15.51
2024-03-03T09:57:21.498Z,17.10
2024-03-03T10:00:21.153Z,15.37
2024-03-03T10:03:21.338Z,15.12
2024-03-03T10:06:21.273Z,15.54
2024-03-03T10:09:21.175Z,14.83
2024-03-03T10:12:21.515Z,15.66
2024-03-03T10:15:21.335Z,15.11
2024-03-03T10:18:22.108Z,14.47
2024-03-03T10:21:21.346Z,16.64
2024-03-03T10:24:22.573Z,15.94
2024-03-03T10:27:21.406Z,15.05
2024-03-03T10:30:21.225Z,17.37
2024-03-03T10:33:21.398Z,15.82
2024-03-03T10:36:21.143Z,18.90
2024-03-03T10:39:21.469Z,16.84
2024-03-03T10:42:21.189Z,17.37
2024-03-03T10:45:21.413Z,17.07
2024-03-03T10:48:21.134Z,17.74
2024-03-03T10:51:21.176Z,16.90
2024-03-03T10:54:21.290Z,18.97
2024-03-03T10:57:22.034Z,16.44
2024-03-03T11:00:21.355Z,17.86
2024-03-03T11:03:21.445Z,15.42
2024-03-03T11:06:21.164Z,16.30
2024-03-03T11:09:21.367Z,20.26
2024-03-03T11:12:22.114Z,16.49
2024-03-03T11:15:21.656Z,17.12
2024-03-03T11:18:21.217Z,17.30
2024-03-03T11:21:21.346Z,18.69
2024-03-03T11:24:21.278Z,22.97
2024-03-03T11:27:21.389Z,20.14
2024-03-03T11:30:21.200Z,18.61
2024-03-03T11:33:21.445Z,21.24
2024-03-03T11:36:21.132Z,21.48
2024-03-03T11:39:21.250Z,24.20
2024-03-03T11:42:21.181Z,22.55
2024-03-03T11:45:21.458Z,32.81
2024-03-03T11:48:21.241Z,26.21
2024-03-03T11:51:21.448Z,23.16
2024-03-03T11:54:21.259Z,22.80
2024-03-03T11:57:21.393Z,25.72
2024-03-03T12:00:21.195Z,29.08
2024-03-03T12:03:21.427Z,29.13
2024-03-03T12:06:21.341Z,26.20
2024-03-03T12:09:21.153Z,25.08
2024-03-03T12:12:21.172Z,20.86
2024-03-03T12:15:21.454Z,21.06
2024-03-03T12:18:21.210Z,25.53
2024-03-03T12:21:21.445Z,22.93
2024-03-03T12:24:21.150Z,20.65
2024-03-03T12:27:21.365Z,18.82
2024-03-03T12:30:21.213Z,21.11
2024-03-03T12:33:21.499Z,20.97
2024-03-03T12:36:21.042Z,18.81
2024-03-03T12:39:21.369Z,19.73
2024-03-03T12:42:21.271Z,25.32
2024-03-03T12:45:21.301Z,20.48
2024-03-03T12:48:21.203Z,18.19
2024-03-03T12:51:21.441Z,20.01
2024-03-03T12:54:21.361Z,22.69
2024-03-03T12:57:21.480Z,20.55
2024-03-03T13:00:21.200Z,21.32
2024-03-03T13:03:21.401Z,26.19
2024-03-03T13:06:21.226Z,26.41
2024-03-03T13:09:21.549Z,26.46
2024-03-03T13:12:21.160Z,21.78
2024-03-03T13:15:21.288Z,24.85
2024-03-03T13:18:21.317Z,22.47
2024-03-03T13:21:21.419Z,22.39
2024-03-03T13:24:21.241Z,20.34
2024-03-03T13:27:21.372Z,23.50
2024-03-03T13:30:21.175Z,28.63
2024-03-03T13:33:24.160Z,23.90
2024-03-03T13:36:21.227Z,31.68
2024-03-03T13:39:21.459Z,30.28
2024-03-03T13:42:21.269Z,26.73
2024-03-03T13:45:21.385Z,25.59
2024-03-03T13:48:21.103Z,26.09
2024-03-03T13:51:21.432Z,26.35
2024-03-03T13:54:21.271Z,21.80
2024-03-03T13:57:21.490Z,28.11
2024-03-03T14:00:21.185Z,26.65
2024-03-03T14:03:21.498Z,29.60
2024-03-03T14:06:21.212Z,30.66
2024-03-03T14:09:21.393Z,25.02
2024-03-03T14:12:21.258Z,30.72
2024-03-03T14:15:21.476Z,23.59
2024-03-03T14:18:21.240Z,28.29
2024-03-03T14:21:21.413Z,25.35
2024-03-03T14:24:21.221Z,22.07
2024-03-03T14:27:21.569Z,25.44
2024-03-03T14:30:21.274Z,22.23
2024-03-03T14:33:21.547Z,28.64
2024-03-03T14:36:22.123Z,30.60
2024-03-03T14:39:21.331Z,25.45
2024-03-03T14:42:21.244Z,20.21
2024-03-03T14:45:21.469Z,21.09
2024-03-03T14:48:21.220Z,18.57
2024-03-03T14:51:21.321Z,23.29
2024-03-03T14:54:21.231Z,21.12
2024-03-03T14:57:21.456Z,22.25
2024-03-03T15:00:21.160Z,20.03
2024-03-03T15:03:21.495Z,22.84
2024-03-03T15:06:21.310Z,18.23
2024-03-03T15:09:21.435Z,20.43
2024-03-03T15:12:21.238Z,22.13
2024-03-03T15:15:21.472Z,18.41
2024-03-03T15:18:21.171Z,16.78
2024-03-03T15:21:21.523Z,21.48
2024-03-03T15:24:21.217Z,24.65
2024-03-03T15:27:21.334Z,20.89
2024-03-03T15:30:21.282Z,20.13
2024-03-03T15:33:21.555Z,22.25
2024-03-03T15:36:21.310Z,16.30
2024-03-03T15:39:21.540Z,18.89
2024-03-03T15:42:21.239Z,21.13
2024-03-03T15:45:21.469Z,20.43
2024-03-03T15:48:21.400Z,19.90
2024-03-03T15:51:21.509Z,18.87
2024-03-03T15:54:21.204Z,17.20
2024-03-03T15:57:21.349Z,14.89
2024-03-03T16:00:21.274Z,21.13
2024-03-03T16:03:21.397Z,19.05
2024-03-03T16:06:21.326Z,15.73
2024-03-03T16:09:21.429Z,15.97
2024-03-03T16:12:21.236Z,14.65
2024-03-03T16:15:21.372Z,14.58
2024-03-03T16:18:21.276Z,14.69
2024-03-03T16:21:23.178Z,12.90
2024-03-03T16:24:21.312Z,13.99
2024-03-03T16:27:22.258Z,18.09
2024-03-03T16:30:21.240Z,18.05
2024-03-03T16:33:21.400Z,15.65
2024-03-03T16:36:21.335Z,12.64
2024-03-03T16:39:21.621Z,11.80
2024-03-03T16:42:21.368Z,14.00
2024-03-03T16:45:21.346Z,11.25
2024-03-03T16:48:21.265Z,14.37
2024-03-03T16:51:21.490Z,13.45
2024-03-03T16:54:21.303Z,12.79
2024-03-03T16:57:21.437Z,14.05
2024-03-03T17:00:21.402Z,13.24
2024-03-03T17:03:21.473Z,15.73
2024-03-03T17:06:21.286Z,16.75
2024-03-03T17:09:21.507Z,13.48
2024-03-03T17:12:21.213Z,13.08
2024-03-03T17:15:21.449Z,15.85
2024-03-03T17:18:21.385Z,14.77
2024-03-03T17:21:21.482Z,14.26
2024-03-03T17:24:21.289Z,11.38
2024-03-03T17:27:21.421Z,9.97
2024-03-03T17:30:22.914Z,11.82
2024-03-03T17:33:21.375Z,10.61
2024-03-03T17:36:23.303Z,10.51
2024-03-03T17:39:21.502Z,11.60
2024-03-03T17:42:21.327Z,9.83
2024-03-03T17:45:21.537Z,11.70
2024-03-03T17:48:21.259Z,11.71
2024-03-03T17:51:21.581Z,12.68
2024-03-03T17:54:21.964Z,10.91
2024-03-03T17:57:21.432Z,10.70
2024-03-03T18:00:21.358Z,9.92
2024-03-03T18:03:21.447Z,9.80
2024-03-03T18:06:21.290Z,9.92
2024-03-03T18:09:22.037Z,8.18
2024-03-03T18:12:22.948Z,10.05
